createdAt,value
2022-11-04T12:36:29.567Z,64.63
2022-11-04T12:43:03.519Z,48.59
2022-11-04T12:45:29.947Z,54.61
2022-11-04T12:47:56.536Z,57.12
2022-11-04T12:50:23.251Z,59.92
2022-11-04T12:52:49.774Z,61.96
2022-11-04T12:55:16.299Z,63.06
2022-11-04T12:57:43.047Z,65.07
2022-11-04T13:00:09.810Z,66.39
2022-11-04T13:02:36.715Z,66.99
2022-11-04T13:05:03.580Z,66.47
2022-11-04T13:07:30.311Z,66.93
2022-11-04T13:09:56.721Z,67.41
2022-11-04T13:12:23.471Z,67.64
2022-11-04T13:14:50.210Z,67.18
2022-11-04T13:17:16.961Z,67.91
2022-11-04T13:19:43.693Z,67.15
2022-11-04T13:22:10.189Z,67.32
2022-11-04T13:24:36.971Z,66.90
2022-11-04T13:27:03.763Z,66.93
2022-11-04T13:29:30.565Z,65.64
2022-11-04T13:31:57.063Z,66.13
2022-11-04T13:34:23.642Z,65.61
2022-11-04T13:36:50.161Z,64.38
2022-11-04T13:39:16.700Z,64.61
2022-11-04T13:41:43.460Z,64.78
2022-11-04T13:44:09.889Z,65.97
2022-11-04T13:46:36.325Z,65.78
2022-11-04T13:49:03.124Z,65.91
2022-11-04T13:51:29.894Z,65.48
2022-11-04T13:53:56.444Z,65.84
2022-11-04T13:56:32.720Z,65.44
2022-11-04T13:59:00.626Z,65.81
2022-11-04T14:01:27.296Z,66.17
2022-11-04T14:03:53.854Z,66.17
2022-11-04T14:06:23.250Z,66.09
2022-11-04T14:19:46.301Z,64.21
2022-11-04T14:22:14.935Z,64.34
2022-11-04T14:24:41.436Z,62.84
2022-11-04T14:27:07.842Z,63.72
2022-11-04T14:29:34.275Z,63.04
2022-11-04T14:32:00.751Z,62.60
2022-11-04T14:34:27.523Z,61.95
2022-11-04T14:36:54.052Z,61.62
2022-11-04T14:39:20.591Z,62.48
2022-11-04T14:41:49.762Z,62.78
2022-11-04T15:48:59.888Z,62.51
2022-11-04T15:51:26.410Z,63.49
2022-11-04T15:53:52.962Z,62.71
2022-11-04T15:56:19.715Z,62.66
2022-11-04T15:58:46.430Z,62.20
2022-11-04T16:01:12.977Z,62.92
2022-11-04T16:03:39.813Z,63.25
2022-11-04T16:06:06.734Z,63.60
2022-11-04T16:08:33.476Z,63.95
2022-11-04T16:11:00.071Z,63.76
2022-11-04T16:13:26.643Z,63.61
2022-11-04T16:15:53.196Z,63.83
2022-11-04T16:18:20.135Z,63.60
2022-11-04T16:20:46.755Z,63.61
2022-11-04T16:23:13.351Z,62.76
2022-11-04T16:25:40.083Z,63.63
2022-11-04T16:28:06.589Z,63.30
2022-11-04T16:30:33.379Z,63.51
2022-11-04T16:33:00.193Z,63.10
2022-11-04T16:35:26.641Z,62.47
2022-11-04T16:37:53.341Z,62.25
2022-11-04T16:40:19.860Z,62.26
2022-11-04T16:42:47.701Z,62.71
2022-11-04T16:56:36.496Z,62.89
2022-11-04T16:59:03.363Z,62.36
2022-11-04T17:01:30.286Z,62.40
2022-11-04T17:03:56.884Z,62.42
2022-11-04T17:06:23.410Z,63.06
2022-11-04T17:08:49.932Z,63.28
2022-11-04T17:11:16.479Z,62.95
2022-11-04T17:32:48.551Z,62.63
2022-11-04T17:35:15.077Z,62.42
2022-11-04T17:37:42.920Z,62.37
